KCSG Airport (Columbus) Information

FAA: CSG - ICAO: KCSG

KCSG Airport Location

State Georgia
County Muscogee
City Columbus
KCSG Airport is 3 miles northeast of Columbus, GA.
Latitude 32-30-58.8000N
Longitude 084-56-19.9000W
Elevation 397ft

KCSG Airport METARs

METAR KCSG 251551Z 24005KT 10SM CLR 23/18 A2993 RMK AO2 SLP132 T02330178
Altimeter 29.93"
Temperature 23.3°C (73.9°F)
Wind 240° at 5KT
Clouds Skies are clear.
Visibility 10.0mi
Time observed: 2021-10-25T15:51:00Z

KCSG Airport Details

Status Operational
Activation November 1942
Ownership Public
Usage Public
Chart ATLANTA
ATC on-site Yes
Beacon schedule sunset-sunrise
Beacon color clear green

KCSG Airport Contacts

Owner COLUMBUS AIRPORT COMMISSION
Owner address 3250 W BRITT DAVID RD, COLUMBUS, GA 31909
Owner phone 706-324-2449
Manager TIM O'NEILL
Manager address 547 GREEN MORGAN SCHOOL ROAD, CLYO, GA 31303
Manager phone (912) 754-7547

KCSG Airport (Columbus) Radio Frequencies

KCSG (Airport) Radio Frequencies

UNICOM 122.95
Common traffic advisory frequency (CTAF) 120.1